Time;durP1;ratioP1;P1;durP2;ratioP2;P2;SDS_P1;SDS_P2;PMS_P1;PMS_P2;Temp;Humidity;BMP_temperature;BMP_pressure;BME280_temperature;BME280_humidity;BME280_pressure;Samples;Min_cycle;Max_cycle;Signal;HPM_P1;HPM_P2
2023/06/24 00:00:16;;;;;;;8.20;3.83;;;;;;;;;;5016536;28;20648;-73
2023/06/24 00:03:23;;;;;;;5.93;3.53;;;;;;;;;;5016200;28;20185;-72
2023/06/24 00:06:27;;;;;;;4.13;3.30;;;;;;;;;;5016703;28;20182;-73
2023/06/24 00:09:31;;;;;;;3.93;3.53;;;;;;;;;;5016104;28;20641;-73
2023/06/24 00:12:35;;;;;;;4.17;3.40;;;;;;;;;;5015084;28;20220;-72
2023/06/24 00:15:43;;;;;;;5.43;4.03;;;;;;;;;;5015457;28;20194;-74
2023/06/24 00:18:47;;;;;;;3.90;3.50;;;;;;;;;;5015406;28;20178;-74
2023/06/24 00:21:52;;;;;;;5.90;3.50;;;;;;;;;;5015784;28;20560;-74
2023/06/24 00:24:56;;;;;;;6.83;3.80;;;;;;;;;;5016058;28;20178;-74
2023/06/24 00:28:00;;;;;;;6.67;3.67;;;;;;;;;;5015668;28;20201;-74
2023/06/24 00:31:04;;;;;;;4.37;3.47;;;;;;;;;;5015107;28;20213;-74
2023/06/24 00:34:08;;;;;;;4.43;3.60;;;;;;;;;;5015048;28;20186;-74
2023/06/24 00:37:13;;;;;;;5.97;4.03;;;;;;;;;;5014776;28;20177;-74
2023/06/24 00:40:17;;;;;;;4.07;2.97;;;;;;;;;;5014929;28;20174;-74
2023/06/24 00:43:21;;;;;;;4.97;3.50;;;;;;;;;;4992523;28;20182;-74
2023/06/24 00:46:26;;;;;;;7.07;3.63;;;;;;;;;;5014604;28;20208;-74
2023/06/24 00:49:31;;;;;;;6.63;4.30;;;;;;;;;;5015347;28;20169;-74
2023/06/24 00:52:38;;;;;;;4.83;4.33;;;;;;;;;;5014762;28;20213;-74
2023/06/24 00:55:45;;;;;;;5.20;4.10;;;;;;;;;;5014391;28;20186;-74
2023/06/24 00:58:50;;;;;;;4.87;3.77;;;;;;;;;;5014338;28;20174;-74
2023/06/24 01:01:53;;;;;;;5.27;3.80;;;;;;;;;;5015312;28;20217;-73
2023/06/24 01:04:58;;;;;;;6.60;4.50;;;;;;;;;;5014999;28;20174;-74
2023/06/24 01:08:02;;;;;;;4.70;4.20;;;;;;;;;;5014365;28;20205;-74
2023/06/24 01:11:06;;;;;;;4.87;3.77;;;;;;;;;;5014068;28;20209;-74
2023/06/24 01:14:10;;;;;;;4.80;4.17;;;;;;;;;;5002825;28;20186;-74
2023/06/24 01:17:30;;;;;;;5.00;4.23;;;;;;;;;;5014041;28;20182;-74
2023/06/24 01:20:56;;;;;;;5.47;3.80;;;;;;;;;;5014224;28;20182;-73
2023/06/24 01:24:38;;;;;;;7.83;4.80;;;;;;;;;;5014364;28;20185;-75
2023/06/24 01:28:00;;;;;;;7.63;4.60;;;;;;;;;;5014042;28;20214;-74
2023/06/24 01:31:38;;;;;;;5.40;4.23;;;;;;;;;;5013920;28;20546;-74
2023/06/24 01:35:02;;;;;;;5.27;3.63;;;;;;;;;;5014670;28;20637;-73
2023/06/24 01:38:13;;;;;;;5.00;4.40;;;;;;;;;;5015008;28;20181;-74
2023/06/24 01:41:22;;;;;;;8.23;4.53;;;;;;;;;;5013660;28;20217;-74
2023/06/24 01:44:28;;;;;;;5.20;4.03;;;;;;;;;;5013483;28;20185;-75
2023/06/24 01:47:34;;;;;;;4.90;3.80;;;;;;;;;;5013439;28;20218;-74
2023/06/24 01:50:42;;;;;;;4.83;4.07;;;;;;;;;;5013551;28;20178;-74
2023/06/24 01:54:01;;;;;;;5.50;4.43;;;;;;;;;;5013687;28;20181;-74
2023/06/24 01:57:08;;;;;;;6.03;4.37;;;;;;;;;;5013327;28;20181;-74
2023/06/24 02:00:13;;;;;;;6.10;4.20;;;;;;;;;;5013554;28;20178;-74
2023/06/24 02:03:30;;;;;;;5.17;4.00;;;;;;;;;;5014174;28;20190;-74
2023/06/24 02:06:35;;;;;;;5.20;4.67;;;;;;;;;;5013144;28;20205;-74
2023/06/24 02:09:43;;;;;;;5.93;4.07;;;;;;;;;;5013859;28;20193;-74
2023/06/24 02:12:49;;;;;;;8.77;4.80;;;;;;;;;;5013266;28;20213;-74
2023/06/24 02:15:54;;;;;;;7.20;4.80;;;;;;;;;;5013282;28;20178;-73
2023/06/24 02:18:59;;;;;;;5.17;4.57;;;;;;;;;;5001802;28;20189;-74
2023/06/24 02:22:09;;;;;;;5.13;4.63;;;;;;;;;;5001800;28;20217;-74
2023/06/24 02:25:13;;;;;;;7.57;4.77;;;;;;;;;;5013909;28;20173;-74
2023/06/24 02:28:18;;;;;;;4.93;4.13;;;;;;;;;;5012721;28;20683;-74
2023/06/24 02:31:22;;;;;;;5.17;4.53;;;;;;;;;;5012946;28;20213;-74
2023/06/24 02:34:26;;;;;;;8.27;5.03;;;;;;;;;;5012199;28;20201;-74
2023/06/24 02:37:30;;;;;;;8.80;4.63;;;;;;;;;;5013039;28;20178;-74
2023/06/24 02:40:34;;;;;;;9.53;5.03;;;;;;;;;;5012852;28;20173;-74
2023/06/24 02:43:39;;;;;;;8.70;4.70;;;;;;;;;;5013389;28;20197;-74
2023/06/24 02:46:45;;;;;;;4.80;4.30;;;;;;;;;;5012534;28;20656;-74
2023/06/24 02:49:51;;;;;;;6.57;5.07;;;;;;;;;;5013354;28;20182;-74
2023/06/24 02:52:55;;;;;;;6.60;5.20;;;;;;;;;;5012516;28;20688;-74
2023/06/24 02:56:06;;;;;;;9.67;5.50;;;;;;;;;;5012487;28;20174;-74
2023/06/24 02:59:12;;;;;;;6.67;5.13;;;;;;;;;;5001420;28;20193;-74
2023/06/24 03:02:17;;;;;;;6.80;5.00;;;;;;;;;;4989953;28;20217;-74
2023/06/24 03:05:25;;;;;;;5.27;4.77;;;;;;;;;;5012692;28;20522;-74
2023/06/24 03:08:30;;;;;;;6.07;4.53;;;;;;;;;;5012574;28;20213;-74
2023/06/24 03:11:44;;;;;;;5.70;5.10;;;;;;;;;;5012758;28;20681;-74
2023/06/24 03:14:52;;;;;;;5.63;4.57;;;;;;;;;;5012641;28;20517;-74
2023/06/24 03:17:56;;;;;;;5.83;4.90;;;;;;;;;;5013426;28;20621;-74
2023/06/24 03:21:00;;;;;;;6.20;5.20;;;;;;;;;;5012254;28;20225;-73
2023/06/24 03:24:07;;;;;;;6.77;5.23;;;;;;;;;;5012570;28;20182;-74
2023/06/24 03:27:13;;;;;;;5.40;4.90;;;;;;;;;;5012232;28;20182;-74
2023/06/24 03:30:20;;;;;;;6.90;5.00;;;;;;;;;;5012500;28;20182;-74
2023/06/24 03:33:27;;;;;;;8.90;4.90;;;;;;;;;;5001391;28;20190;-74
2023/06/24 03:36:34;;;;;;;6.63;4.83;;;;;;;;;;5013250;28;20186;-74
2023/06/24 03:39:39;;;;;;;7.13;4.70;;;;;;;;;;5012123;28;20177;-74
2023/06/24 03:42:43;;;;;;;5.93;4.70;;;;;;;;;;5011977;28;20680;-74
2023/06/24 03:45:48;;;;;;;5.27;4.60;;;;;;;;;;5012084;28;20201;-74
2023/06/24 03:48:51;;;;;;;5.53;4.50;;;;;;;;;;5015894;28;20676;-74
2023/06/24 03:51:56;;;;;;;6.30;4.97;;;;;;;;;;5004374;28;20676;-74
2023/06/24 03:55:03;;;;;;;6.60;4.70;;;;;;;;;;5015849;28;20185;-74
2023/06/24 03:58:08;;;;;;;7.23;4.90;;;;;;;;;;5015836;28;20174;-74
2023/06/24 04:01:12;;;;;;;9.80;4.20;;;;;;;;;;5015419;28;20213;-74
2023/06/24 04:04:16;;;;;;;6.97;4.97;;;;;;;;;;5004292;28;20649;-74
2023/06/24 04:07:27;;;;;;;6.13;5.07;;;;;;;;;;5016422;28;20197;-74
2023/06/24 04:10:33;;;;;;;7.83;4.60;;;;;;;;;;5004225;28;20178;-73
2023/06/24 04:13:37;;;;;;;5.60;4.67;;;;;;;;;;5015512;28;20177;-74
2023/06/24 04:16:42;;;;;;;6.40;4.47;;;;;;;;;;5015193;28;20182;-74
2023/06/24 04:19:46;;;;;;;7.73;4.73;;;;;;;;;;5015113;28;20177;-73
2023/06/24 04:22:50;;;;;;;8.93;4.70;;;;;;;;;;5016118;28;20217;-74
2023/06/24 04:25:54;;;;;;;7.67;5.10;;;;;;;;;;5015941;28;20181;-74
2023/06/24 04:28:59;;;;;;;5.33;4.80;;;;;;;;;;4992883;28;20205;-74
2023/06/24 04:32:03;;;;;;;6.30;4.60;;;;;;;;;;5015120;28;20217;-74
2023/06/24 04:35:08;;;;;;;5.53;4.97;;;;;;;;;;5015938;28;20173;-73
2023/06/24 04:38:18;;;;;;;8.50;4.90;;;;;;;;;;5003801;28;20178;-74
2023/06/24 04:41:23;;;;;;;6.43;4.63;;;;;;;;;;5014770;28;20221;-74
2023/06/24 04:44:27;;;;;;;7.67;4.57;;;;;;;;;;5015390;28;20178;-74
2023/06/24 04:47:31;;;;;;;6.07;4.97;;;;;;;;;;5015682;28;20280;-74
2023/06/24 04:50:35;;;;;;;7.30;5.17;;;;;;;;;;5014807;28;20514;-74
2023/06/24 04:53:39;;;;;;;7.10;5.10;;;;;;;;;;5003521;28;20193;-74
2023/06/24 04:56:45;;;;;;;5.27;4.60;;;;;;;;;;5015207;28;20197;-74
2023/06/24 04:59:49;;;;;;;5.13;4.63;;;;;;;;;;5015166;28;20170;-73
2023/06/24 05:02:53;;;;;;;6.43;4.73;;;;;;;;;;5015069;28;20225;-73
2023/06/24 05:05:57;;;;;;;6.87;5.20;;;;;;;;;;5015868;28;20181;-73
2023/06/24 05:09:01;;;;;;;7.83;4.83;;;;;;;;;;5015251;28;20205;-75
2023/06/24 05:12:06;;;;;;;8.60;4.97;;;;;;;;;;5014888;28;20221;-74
2023/06/24 05:15:10;;;;;;;6.70;5.17;;;;;;;;;;5014365;28;20181;-74
2023/06/24 05:18:15;;;;;;;8.20;5.63;;;;;;;;;;5015131;28;20177;-73
2023/06/24 05:21:19;;;;;;;8.63;5.10;;;;;;;;;;5013935;28;20221;-73
2023/06/24 05:24:23;;;;;;;6.57;5.60;;;;;;;;;;5014770;28;20533;-73
2023/06/24 05:27:27;;;;;;;8.13;5.40;;;;;;;;;;5015027;28;20514;-73
2023/06/24 05:30:31;;;;;;;5.90;4.87;;;;;;;;;;5014783;28;20205;-74
2023/06/24 05:33:35;;;;;;;7.23;4.93;;;;;;;;;;5013761;28;20181;-74
2023/06/24 05:36:39;;;;;;;5.33;4.83;;;;;;;;;;5013993;28;20182;-74
2023/06/24 05:39:43;;;;;;;9.03;4.53;;;;;;;;;;5014706;28;20616;-73
2023/06/24 05:42:47;;;;;;;6.47;5.00;;;;;;;;;;5014600;28;20216;-72
2023/06/24 05:45:51;;;;;;;4.80;4.30;;;;;;;;;;5014351;28;20197;-74
2023/06/24 05:48:55;;;;;;;5.27;4.20;;;;;;;;;;5014290;28;20205;-73
2023/06/24 05:51:59;;;;;;;6.87;4.90;;;;;;;;;;5013532;28;20213;-73
2023/06/24 05:55:04;;;;;;;7.20;4.63;;;;;;;;;;5013310;28;20197;-71
2023/06/24 05:58:08;;;;;;;6.17;4.80;;;;;;;;;;5014101;28;20185;-73
2023/06/24 06:01:13;;;;;;;8.57;4.63;;;;;;;;;;5014854;28;20225;-73
2023/06/24 06:04:17;;;;;;;6.20;4.77;;;;;;;;;;5013990;28;20186;-73
2023/06/24 06:07:21;;;;;;;7.77;4.67;;;;;;;;;;5013406;28;20186;-74
2023/06/24 06:10:25;;;;;;;9.60;4.27;;;;;;;;;;5013292;28;20213;-74
2023/06/24 06:13:30;;;;;;;4.70;4.10;;;;;;;;;;5014534;28;20186;-74
2023/06/24 06:16:34;;;;;;;7.57;4.90;;;;;;;;;;5013501;28;20738;-74
2023/06/24 06:19:41;;;;;;;6.77;4.23;;;;;;;;;;5014086;28;20174;-74
2023/06/24 06:22:45;;;;;;;7.47;4.23;;;;;;;;;;5013354;28;20221;-76
2023/06/24 06:25:50;;;;;;;5.73;4.20;;;;;;;;;;5013698;28;20263;-74
2023/06/24 06:28:54;;;;;;;7.67;4.30;;;;;;;;;;5013124;28;20213;-74
2023/06/24 06:31:58;;;;;;;5.13;4.13;;;;;;;;;;5012995;28;20216;-71
2023/06/24 06:35:02;;;;;;;4.70;4.30;;;;;;;;;;5013856;28;20189;-74
2023/06/24 06:38:06;;;;;;;5.80;4.40;;;;;;;;;;5013790;28;20185;-74
2023/06/24 06:41:11;;;;;;;5.17;3.93;;;;;;;;;;5014398;28;20680;-75
2023/06/24 06:44:15;;;;;;;4.80;4.10;;;;;;;;;;5013465;28;20178;-74
2023/06/24 06:47:19;;;;;;;4.73;4.10;;;;;;;;;;5012744;28;20177;-72
2023/06/24 06:50:23;;;;;;;6.27;4.03;;;;;;;;;;5013427;28;20217;-73
2023/06/24 06:53:27;;;;;;;5.10;4.47;;;;;;;;;;5012629;28;20186;-71
2023/06/24 06:56:31;;;;;;;5.00;4.00;;;;;;;;;;5013455;28;20181;-73
2023/06/24 06:59:35;;;;;;;5.00;4.40;;;;;;;;;;5012822;28;20620;-74
2023/06/24 07:02:40;;;;;;;4.57;3.97;;;;;;;;;;5001225;28;20217;-74
2023/06/24 07:05:44;;;;;;;4.33;3.93;;;;;;;;;;5013211;28;20545;-73
2023/06/24 07:08:48;;;;;;;5.13;4.13;;;;;;;;;;5013518;28;20617;-73
2023/06/24 07:11:52;;;;;;;5.17;3.70;;;;;;;;;;5012455;28;20220;-74
2023/06/24 07:14:57;;;;;;;5.17;3.67;;;;;;;;;;5012411;28;20185;-74
2023/06/24 07:18:01;;;;;;;6.20;3.63;;;;;;;;;;5012536;28;20177;-74
2023/06/24 07:21:05;;;;;;;3.97;3.57;;;;;;;;;;5014395;28;20213;-74
2023/06/24 07:24:09;;;;;;;4.07;3.37;;;;;;;;;;5016501;28;20186;-74
2023/06/24 07:27:13;;;;;;;4.17;3.77;;;;;;;;;;5016932;28;20189;-74
2023/06/24 07:30:17;;;;;;;5.13;3.60;;;;;;;;;;5016295;28;20206;-74
2023/06/24 07:33:21;;;;;;;11.57;3.80;;;;;;;;;;5005156;28;20198;-74
2023/06/24 07:36:25;;;;;;;3.37;2.93;;;;;;;;;;5016643;28;20541;-74
2023/06/24 07:39:30;;;;;;;6.27;3.10;;;;;;;;;;5016434;28;20174;-74
2023/06/24 07:42:34;;;;;;;4.07;3.23;;;;;;;;;;5016574;28;20700;-74
2023/06/24 07:45:38;;;;;;;3.53;3.10;;;;;;;;;;5016596;28;20198;-74
2023/06/24 07:48:42;;;;;;;4.27;3.47;;;;;;;;;;5016679;28;20184;-74
2023/06/24 07:51:46;;;;;;;6.43;3.57;;;;;;;;;;5015870;28;20217;-75
2023/06/24 07:54:50;;;;;;;4.10;3.50;;;;;;;;;;5016691;28;20511;-73
2023/06/24 07:57:54;;;;;;;5.47;3.13;;;;;;;;;;5016359;28;20178;-74
2023/06/24 08:00:59;;;;;;;4.53;3.67;;;;;;;;;;5015419;28;20179;-73
2023/06/24 08:04:03;;;;;;;4.23;3.37;;;;;;;;;;5016510;28;20648;-73
2023/06/24 08:07:07;;;;;;;4.37;3.57;;;;;;;;;;5016400;28;20182;-73
2023/06/24 08:10:11;;;;;;;4.70;3.30;;;;;;;;;;5016023;28;20206;-73
2023/06/24 08:13:15;;;;;;;3.53;3.17;;;;;;;;;;5016427;28;20204;-73
2023/06/24 08:16:20;;;;;;;4.53;2.80;;;;;;;;;;5016286;28;20202;-73
2023/06/24 08:19:24;;;;;;;3.60;2.80;;;;;;;;;;5016202;28;20174;-72
2023/06/24 08:22:28;;;;;;;6.75;2.90;;;;;;;;;;5016133;28;20218;-72
2023/06/24 08:25:32;;;;;;;4.18;3.70;;;;;;;;;;5016169;28;20667;-72
2023/06/24 08:28:37;;;;;;;4.55;3.45;;;;;;;;;;5015942;28;20187;-72
2023/06/24 08:31:41;;;;;;;3.30;3.00;;;;;;;;;;5015701;28;20211;-72
2023/06/24 08:34:46;;;;;;;3.72;3.20;;;;;;;;;;5014983;28;20181;-72
2023/06/24 08:37:50;;;;;;;4.65;3.22;;;;;;;;;;5016125;28;20647;-72
2023/06/24 08:40:55;;;;;;;3.47;3.17;;;;;;;;;;5015804;28;20179;-72
2023/06/24 08:43:59;;;;;;;3.90;2.88;;;;;;;;;;5014911;28;20175;-72
2023/06/24 08:47:04;;;;;;;3.97;3.20;;;;;;;;;;5015783;28;20631;-73
2023/06/24 08:50:12;;;;;;;4.13;3.45;;;;;;;;;;5015341;28;20218;-73
2023/06/24 08:53:18;;;;;;;4.85;3.90;;;;;;;;;;5015977;28;20517;-74
2023/06/24 08:56:22;;;;;;;7.53;3.80;;;;;;;;;;5014704;28;20183;-74
2023/06/24 08:59:27;;;;;;;5.53;3.65;;;;;;;;;;5015163;28;20188;-72
2023/06/24 09:02:32;;;;;;;4.13;3.72;;;;;;;;;;5015139;28;20216;-72
2023/06/24 09:05:36;;;;;;;5.97;4.15;;;;;;;;;;5003200;28;20175;-72
2023/06/24 09:08:41;;;;;;;4.10;3.47;;;;;;;;;;5015085;28;20186;-72
2023/06/24 09:11:54;;;;;;;4.13;3.40;;;;;;;;;;5014922;28;20565;-72
2023/06/24 09:14:58;;;;;;;6.50;3.28;;;;;;;;;;5015234;28;20186;-72
2023/06/24 09:18:03;;;;;;;3.92;3.45;;;;;;;;;;5014863;28;20182;-72
2023/06/24 09:21:10;;;;;;;4.35;3.50;;;;;;;;;;5014175;28;20288;-72
2023/06/24 09:24:14;;;;;;;12.13;3.90;;;;;;;;;;5015328;28;20517;-72
2023/06/24 09:27:23;;;;;;;5.68;3.35;;;;;;;;;;5015248;28;20677;-72
2023/06/24 09:30:28;;;;;;;5.68;4.05;;;;;;;;;;5014038;28;20210;-72
2023/06/24 09:33:34;;;;;;;4.53;3.92;;;;;;;;;;5014572;28;20526;-72
2023/06/24 09:36:42;;;;;;;3.85;3.30;;;;;;;;;;5014847;28;20526;-72
2023/06/24 09:39:46;;;;;;;4.30;3.20;;;;;;;;;;5014986;28;20178;-72
2023/06/24 09:42:52;;;;;;;3.38;3.03;;;;;;;;;;5014360;28;20216;-72
2023/06/24 09:45:58;;;;;;;3.33;2.75;;;;;;;;;;5013459;28;20231;-72
2023/06/24 09:49:04;;;;;;;3.10;2.65;;;;;;;;;;5013806;28;20173;-72
2023/06/24 09:52:09;;;;;;;5.95;2.88;;;;;;;;;;5014463;28;20214;-72
2023/06/24 09:55:15;;;;;;;3.70;3.00;;;;;;;;;;5014430;28;20186;-72
2023/06/24 09:58:20;;;;;;;3.13;2.83;;;;;;;;;;5013665;28;20177;-72
2023/06/24 10:01:24;;;;;;;3.65;2.85;;;;;;;;;;5013487;28;20213;-72
2023/06/24 10:04:28;;;;;;;3.83;2.90;;;;;;;;;;5013216;28;20197;-72
2023/06/24 10:07:34;;;;;;;6.72;3.25;;;;;;;;;;5013161;28;20194;-72
2023/06/24 10:10:37;;;;;;;6.30;3.00;;;;;;;;;;5014027;28;20206;-72
2023/06/24 10:13:42;;;;;;;3.45;3.10;;;;;;;;;;5013915;28;20182;-72
2023/06/24 10:16:46;;;;;;;7.70;3.30;;;;;;;;;;5013347;28;20178;-72
2023/06/24 10:19:52;;;;;;;3.40;2.78;;;;;;;;;;5012942;28;20198;-72
2023/06/24 10:22:58;;;;;;;3.35;3.05;;;;;;;;;;5013633;28;20221;-72
2023/06/24 10:26:07;;;;;;;5.50;3.17;;;;;;;;;;5013992;28;20174;-71
2023/06/24 10:29:14;;;;;;;3.58;3.25;;;;;;;;;;5013888;28;20189;-73
2023/06/24 10:32:19;;;;;;;7.07;3.17;;;;;;;;;;5013606;28;20210;-72
2023/06/24 10:35:25;;;;;;;3.10;2.80;;;;;;;;;;5013840;28;20173;-72
2023/06/24 10:38:29;;;;;;;3.08;2.70;;;;;;;;;;5013075;28;20181;-72
2023/06/24 10:41:33;;;;;;;3.90;3.03;;;;;;;;;;5013679;28;20213;-72
2023/06/24 10:44:47;;;;;;;3.67;3.10;;;;;;;;;;5013785;28;20177;-72
2023/06/24 10:47:52;;;;;;;3.72;3.00;;;;;;;;;;5013304;28;20202;-72
2023/06/24 10:50:57;;;;;;;2.95;2.60;;;;;;;;;;5013486;28;20221;-72
2023/06/24 10:54:01;;;;;;;2.92;2.63;;;;;;;;;;5013474;28;20174;-72
2023/06/24 10:57:11;;;;;;;2.83;2.47;;;;;;;;;;5012931;28;20174;-72
2023/06/24 11:00:15;;;;;;;3.85;2.85;;;;;;;;;;5013685;28;20186;-73
2023/06/24 11:03:20;;;;;;;4.95;2.50;;;;;;;;;;5013360;28;20201;-72
2023/06/24 11:06:24;;;;;;;3.10;2.45;;;;;;;;;;5013020;28;20197;-72
2023/06/24 11:09:28;;;;;;;3.00;2.70;;;;;;;;;;5011341;28;20182;-72
2023/06/24 11:12:34;;;;;;;3.08;2.80;;;;;;;;;;5012442;28;20214;-72
2023/06/24 11:15:40;;;;;;;6.05;2.45;;;;;;;;;;5010021;28;20186;-73
2023/06/24 11:18:44;;;;;;;2.80;2.50;;;;;;;;;;5012823;28;20198;-72
2023/06/24 11:21:49;;;;;;;2.92;2.60;;;;;;;;;;5010928;28;20213;-72
2023/06/24 11:24:54;;;;;;;4.55;2.65;;;;;;;;;;5011524;28;20182;-72
2023/06/24 11:27:58;;;;;;;3.20;2.90;;;;;;;;;;5012161;28;20181;-72
2023/06/24 11:31:10;;;;;;;3.58;2.80;;;;;;;;;;4993477;28;20230;-73
2023/06/24 11:34:14;;;;;;;5.50;2.45;;;;;;;;;;5002631;28;20193;-72
2023/06/24 11:37:19;;;;;;;5.03;2.95;;;;;;;;;;5003940;28;20182;-72
2023/06/24 11:40:23;;;;;;;2.55;2.35;;;;;;;;;;5010426;28;20186;-73
2023/06/24 11:43:27;;;;;;;4.65;2.67;;;;;;;;;;5011784;28;20190;-72
2023/06/24 11:46:33;;;;;;;2.60;2.40;;;;;;;;;;5012125;28;20202;-72
2023/06/24 11:49:55;;;;;;;3.05;2.63;;;;;;;;;;5009575;28;20198;-72
2023/06/24 11:52:59;;;;;;;3.88;2.95;;;;;;;;;;5010527;28;20701;-72
2023/06/24 11:56:03;;;;;;;3.70;2.60;;;;;;;;;;5011157;28;20526;-72
2023/06/24 11:59:22;;;;;;;2.30;2.10;;;;;;;;;;5011580;28;20198;-73
2023/06/24 12:02:28;;;;;;;3.95;2.45;;;;;;;;;;5011448;28;20214;-73
2023/06/24 12:05:34;;;;;;;3.05;2.75;;;;;;;;;;5011858;28;20193;-73
2023/06/24 12:08:38;;;;;;;3.80;2.95;;;;;;;;;;5014849;28;20186;-73
2023/06/24 12:11:42;;;;;;;2.75;2.53;;;;;;;;;;5015558;28;20233;-72
2023/06/24 12:14:46;;;;;;;2.63;2.42;;;;;;;;;;5015365;28;20177;-72
2023/06/24 12:17:50;;;;;;;3.92;2.75;;;;;;;;;;5016011;28;20550;-73
2023/06/24 12:20:55;;;;;;;8.88;3.70;;;;;;;;;;5016028;28;20515;-73
2023/06/24 12:24:00;;;;;;;5.88;3.10;;;;;;;;;;5015136;28;20194;-73
2023/06/24 12:27:04;;;;;;;3.80;2.83;;;;;;;;;;5015915;28;20177;-73
2023/06/24 12:30:10;;;;;;;3.72;2.53;;;;;;;;;;5003503;28;20197;-73
2023/06/24 12:33:14;;;;;;;4.10;2.75;;;;;;;;;;4996335;28;20198;-73
2023/06/24 12:36:19;;;;;;;3.17;2.58;;;;;;;;;;4995882;28;20191;-73
2023/06/24 12:39:24;;;;;;;3.53;2.60;;;;;;;;;;4996163;28;20175;-73
2023/06/24 12:42:28;;;;;;;4.45;2.90;;;;;;;;;;4995850;28;20210;-73
2023/06/24 12:45:32;;;;;;;2.38;2.17;;;;;;;;;;4995986;28;20210;-74
2023/06/24 12:48:36;;;;;;;2.63;2.40;;;;;;;;;;4995999;28;20174;-73
2023/06/24 12:51:40;;;;;;;5.38;2.72;;;;;;;;;;4995604;28;20581;-74
2023/06/24 12:54:44;;;;;;;2.58;2.35;;;;;;;;;;4995719;28;20198;-74
2023/06/24 12:57:48;;;;;;;2.67;2.47;;;;;;;;;;4995593;28;20537;-73
2023/06/24 13:00:53;;;;;;;3.30;2.40;;;;;;;;;;4995024;28;20621;-73
2023/06/24 13:03:57;;;;;;;2.58;2.38;;;;;;;;;;4995030;28;20179;-74
2023/06/24 13:07:01;;;;;;;2.95;2.28;;;;;;;;;;4995520;28;20183;-74
2023/06/24 13:10:08;;;;;;;3.30;2.70;;;;;;;;;;4995686;28;20179;-73
2023/06/24 13:13:13;;;;;;;5.10;2.58;;;;;;;;;;4995639;28;20175;-73
2023/06/24 13:16:17;;;;;;;3.22;2.58;;;;;;;;;;4995157;28;20201;-73
2023/06/24 13:19:22;;;;;;;2.92;2.50;;;;;;;;;;4994002;28;20633;-73
2023/06/24 13:22:26;;;;;;;3.00;2.65;;;;;;;;;;4994489;28;20214;-73
2023/06/24 13:25:30;;;;;;;3.10;2.45;;;;;;;;;;4995207;28;20199;-74
2023/06/24 13:28:34;;;;;;;4.63;2.95;;;;;;;;;;4995293;28;20190;-73
2023/06/24 13:31:39;;;;;;;3.88;2.58;;;;;;;;;;4994915;28;20226;-72
2023/06/24 13:34:43;;;;;;;2.65;2.40;;;;;;;;;;5014163;28;20185;-72
2023/06/24 13:37:47;;;;;;;3.67;2.30;;;;;;;;;;5013415;28;20186;-73
2023/06/24 13:40:52;;;;;;;2.42;2.22;;;;;;;;;;5012731;28;20186;-74
2023/06/24 13:43:56;;;;;;;2.75;2.47;;;;;;;;;;5013107;28;20174;-74
2023/06/24 13:47:01;;;;;;;2.92;2.60;;;;;;;;;;5012889;28;20205;-73
2023/06/24 13:50:06;;;;;;;3.75;2.42;;;;;;;;;;5011771;28;20201;-75
2023/06/24 13:53:10;;;;;;;2.60;2.40;;;;;;;;;;5011359;28;20186;-73
2023/06/24 13:56:14;;;;;;;3.33;2.75;;;;;;;;;;5013016;28;20193;-74
2023/06/24 13:59:18;;;;;;;3.15;2.85;;;;;;;;;;5013573;28;20178;-74
2023/06/24 14:02:22;;;;;;;3.35;2.50;;;;;;;;;;5013424;28;20205;-73
2023/06/24 14:05:26;;;;;;;4.22;2.75;;;;;;;;;;5011469;28;20534;-73
2023/06/24 14:08:32;;;;;;;3.45;2.50;;;;;;;;;;5011792;28;20185;-73
2023/06/24 14:11:36;;;;;;;3.70;2.50;;;;;;;;;;5012335;28;20230;-73
2023/06/24 14:14:40;;;;;;;6.78;3.28;;;;;;;;;;5014107;28;20186;-73
2023/06/24 14:17:45;;;;;;;5.05;2.70;;;;;;;;;;5013821;28;20186;-73
2023/06/24 14:20:49;;;;;;;3.67;2.50;;;;;;;;;;5013219;28;20182;-73
2023/06/24 14:23:53;;;;;;;2.67;2.30;;;;;;;;;;5013763;28;20544;-73
2023/06/24 14:26:58;;;;;;;4.20;2.97;;;;;;;;;;5012608;28;20201;-74
2023/06/24 14:30:01;;;;;;;3.08;2.72;;;;;;;;;;5012645;28;20190;-74
2023/06/24 14:33:06;;;;;;;2.95;2.70;;;;;;;;;;5010990;28;20217;-74
2023/06/24 14:36:10;;;;;;;2.78;2.50;;;;;;;;;;5011526;28;20197;-74
2023/06/24 14:39:18;;;;;;;2.95;2.58;;;;;;;;;;5012233;28;20641;-73
2023/06/24 14:42:23;;;;;;;3.25;2.78;;;;;;;;;;5013482;28;20704;-73
2023/06/24 14:45:27;;;;;;;3.33;2.88;;;;;;;;;;4993842;28;20212;-72
2023/06/24 14:48:31;;;;;;;2.92;2.50;;;;;;;;;;4993647;28;20188;-73
2023/06/24 14:51:35;;;;;;;4.68;3.17;;;;;;;;;;4993431;28;20566;-72
2023/06/24 14:54:39;;;;;;;4.95;3.20;;;;;;;;;;4993610;28;20182;-73
2023/06/24 14:57:44;;;;;;;3.22;2.47;;;;;;;;;;4992908;28;20173;-73
2023/06/24 15:00:48;;;;;;;4.93;3.55;;;;;;;;;;4992946;28;20191;-73
2023/06/24 15:03:52;;;;;;;3.58;2.50;;;;;;;;;;4993509;28;20182;-73
2023/06/24 15:06:56;;;;;;;3.05;2.60;;;;;;;;;;4993871;28;20186;-73
2023/06/24 15:10:00;;;;;;;2.42;2.22;;;;;;;;;;4993677;28;20179;-74
2023/06/24 15:13:05;;;;;;;3.63;2.65;;;;;;;;;;4993265;28;20218;-73
2023/06/24 15:16:09;;;;;;;2.95;2.67;;;;;;;;;;4993780;28;20194;-73
2023/06/24 15:19:13;;;;;;;4.07;3.00;;;;;;;;;;4993387;28;20187;-73
2023/06/24 15:22:17;;;;;;;3.60;2.90;;;;;;;;;;4993269;28;20214;-73
2023/06/24 15:25:21;;;;;;;3.25;2.63;;;;;;;;;;4993246;28;20545;-73
2023/06/24 15:28:26;;;;;;;5.97;2.65;;;;;;;;;;4993272;28;20202;-73
2023/06/24 15:31:30;;;;;;;3.33;3.03;;;;;;;;;;4993155;28;20221;-73
2023/06/24 15:34:34;;;;;;;4.28;3.03;;;;;;;;;;4993505;28;20189;-73
2023/06/24 15:37:38;;;;;;;4.57;2.50;;;;;;;;;;5006398;28;20191;-73
2023/06/24 15:40:43;;;;;;;5.13;2.72;;;;;;;;;;5010152;28;20178;-72
2023/06/24 15:43:47;;;;;;;4.90;2.65;;;;;;;;;;5014579;28;20184;-72
2023/06/24 15:46:52;;;;;;;3.90;2.55;;;;;;;;;;5014179;28;20203;-72
2023/06/24 15:49:56;;;;;;;5.05;2.65;;;;;;;;;;5016787;28;20178;-73
2023/06/24 15:53:00;;;;;;;4.70;2.80;;;;;;;;;;5015492;28;20221;-73
2023/06/24 15:56:04;;;;;;;2.95;2.65;;;;;;;;;;5016826;28;20193;-73
2023/06/24 15:59:09;;;;;;;3.90;2.72;;;;;;;;;;5015571;28;20197;-73
2023/06/24 16:02:13;;;;;;;3.88;2.70;;;;;;;;;;5015846;28;20565;-72
2023/06/24 16:05:17;;;;;;;4.55;2.65;;;;;;;;;;5016772;28;20181;-73
2023/06/24 16:08:21;;;;;;;5.47;3.13;;;;;;;;;;5027013;28;20178;-73
2023/06/24 16:11:26;;;;;;;4.38;2.80;;;;;;;;;;5015144;28;20211;-73
2023/06/24 16:14:30;;;;;;;3.38;3.08;;;;;;;;;;5015141;28;20184;-73
2023/06/24 16:17:34;;;;;;;3.63;2.78;;;;;;;;;;5015973;28;20191;-72
2023/06/24 16:20:38;;;;;;;3.30;2.72;;;;;;;;;;5015297;28;20190;-73
2023/06/24 16:23:43;;;;;;;3.75;2.60;;;;;;;;;;5015220;28;20179;-73
2023/06/24 16:26:47;;;;;;;5.75;2.83;;;;;;;;;;5015755;28;20185;-73
2023/06/24 16:29:51;;;;;;;2.92;2.63;;;;;;;;;;5015727;28;20197;-74
2023/06/24 16:32:55;;;;;;;2.90;2.60;;;;;;;;;;5014947;28;20228;-74
2023/06/24 16:35:59;;;;;;;4.05;2.92;;;;;;;;;;5015653;28;20178;-74
2023/06/24 16:39:04;;;;;;;7.75;3.90;;;;;;;;;;5016051;28;20180;-74
2023/06/24 16:42:08;;;;;;;5.18;3.80;;;;;;;;;;5014667;28;20219;-73
2023/06/24 16:45:12;;;;;;;3.78;2.63;;;;;;;;;;5014617;28;20207;-74
2023/06/24 16:48:16;;;;;;;3.63;3.00;;;;;;;;;;5015462;28;20204;-74
2023/06/24 16:51:23;;;;;;;6.40;3.95;;;;;;;;;;5015147;28;20213;-73
2023/06/24 16:54:27;;;;;;;4.18;3.00;;;;;;;;;;5015081;28;20622;-72
2023/06/24 16:57:31;;;;;;;3.03;2.72;;;;;;;;;;5015078;28;20658;-72
2023/06/24 17:00:36;;;;;;;2.83;2.53;;;;;;;;;;5014616;28;20193;-73
2023/06/24 17:03:41;;;;;;;3.08;2.80;;;;;;;;;;5014978;28;20183;-72
2023/06/24 17:06:45;;;;;;;4.75;3.03;;;;;;;;;;5014954;28;20182;-72
2023/06/24 17:09:49;;;;;;;5.95;3.35;;;;;;;;;;5014016;28;20201;-72
2023/06/24 17:12:54;;;;;;;4.45;3.45;;;;;;;;;;5013697;28;20596;-73
2023/06/24 17:15:58;;;;;;;5.00;2.80;;;;;;;;;;5014321;28;20181;-72
2023/06/24 17:19:02;;;;;;;3.05;2.35;;;;;;;;;;5014017;28;20200;-73
2023/06/24 17:22:06;;;;;;;13.10;2.90;;;;;;;;;;5013815;28;20683;-73
2023/06/24 17:25:10;;;;;;;3.92;2.63;;;;;;;;;;5014908;28;20173;-73
2023/06/24 17:28:14;;;;;;;4.07;2.58;;;;;;;;;;5014629;28;20174;-73
2023/06/24 17:31:18;;;;;;;5.95;2.80;;;;;;;;;;5014449;28;20214;-73
2023/06/24 17:34:22;;;;;;;4.70;2.50;;;;;;;;;;5014480;28;20175;-73
2023/06/24 17:37:26;;;;;;;3.30;2.70;;;;;;;;;;5014686;28;20184;-73
2023/06/24 17:40:30;;;;;;;2.85;2.53;;;;;;;;;;5014567;28;20181;-72
2023/06/24 17:43:35;;;;;;;5.30;2.58;;;;;;;;;;5014297;28;20175;-72
2023/06/24 17:46:39;;;;;;;4.38;2.90;;;;;;;;;;5014156;28;20190;-73
2023/06/24 17:49:43;;;;;;;37.22;5.82;;;;;;;;;;5014416;28;20187;-72
2023/06/24 17:52:47;;;;;;;52.35;5.82;;;;;;;;;;5013959;28;20225;-72
2023/06/24 17:55:51;;;;;;;36.42;7.78;;;;;;;;;;5014031;28;20201;-72
2023/06/24 17:58:56;;;;;;;12.47;5.40;;;;;;;;;;5013994;28;20202;-72
2023/06/24 18:02:00;;;;;;;11.27;4.50;;;;;;;;;;5014078;28;20213;-72
2023/06/24 18:05:04;;;;;;;9.07;4.70;;;;;;;;;;5013212;28;20178;-72
2023/06/24 18:08:08;;;;;;;4.50;3.80;;;;;;;;;;5014155;28;20517;-72
2023/06/24 18:11:12;;;;;;;3.27;2.80;;;;;;;;;;5014052;28;20215;-72
2023/06/24 18:14:16;;;;;;;3.03;2.73;;;;;;;;;;5013982;28;20217;-72
2023/06/24 18:17:20;;;;;;;4.90;3.27;;;;;;;;;;5012404;28;20554;-72
2023/06/24 18:20:24;;;;;;;4.33;2.77;;;;;;;;;;5013147;28;20198;-73
2023/06/24 18:23:28;;;;;;;7.40;4.43;;;;;;;;;;5013115;28;20193;-73
2023/06/24 18:26:32;;;;;;;10.13;4.90;;;;;;;;;;5001825;28;20186;-73
2023/06/24 18:29:36;;;;;;;4.27;3.40;;;;;;;;;;5013556;28;20185;-73